sensor_id;sensor_type;location;lat;lon;timestamp;pressure;altitude;pressure_sealevel;temperature;humidity
61128;BME280;47013;42.664;23.242;2022-09-09T00:04:37;94279.00;;;17.40;82.14
61128;BME280;47013;42.664;23.242;2022-09-09T00:12:38;94275.72;;;17.45;82.01
61128;BME280;47013;42.664;23.242;2022-09-09T00:15:12;94276.69;;;17.38;81.92
61128;BME280;47013;42.664;23.242;2022-09-09T00:18:01;94266.50;;;17.26;82.47
61128;BME280;47013;42.664;23.242;2022-09-09T00:23:12;94263.56;;;17.21;83.10
61128;BME280;47013;42.664;23.242;2022-09-09T00:28:16;94251.84;;;17.20;83.34
61128;BME280;47013;42.664;23.242;2022-09-09T00:30:42;94244.41;;;17.08;83.92
61128;BME280;47013;42.664;23.242;2022-09-09T00:33:12;94242.63;;;17.01;84.05
61128;BME280;47013;42.664;23.242;2022-09-09T00:35:46;94240.78;;;16.98;84.27
61128;BME280;47013;42.664;23.242;2022-09-09T00:38:15;94240.00;;;16.98;84.16
61128;BME280;47013;42.664;23.242;2022-09-09T00:41:17;94240.91;;;16.95;84.21
61128;BME280;47013;42.664;23.242;2022-09-09T00:43:55;94242.19;;;16.77;84.72
61128;BME280;47013;42.664;23.242;2022-09-09T00:51:48;94251.25;;;16.62;86.22
61128;BME280;47013;42.664;23.242;2022-09-09T00:54:28;94247.41;;;16.59;86.26
61128;BME280;47013;42.664;23.242;2022-09-09T00:57:26;94243.47;;;16.60;86.26
61128;BME280;47013;42.664;23.242;2022-09-09T01:02:31;94247.53;;;16.56;86.07
61128;BME280;47013;42.664;23.242;2022-09-09T01:05:34;94243.66;;;16.53;86.02
61128;BME280;47013;42.664;23.242;2022-09-09T01:08:08;94233.91;;;16.39;86.54
61128;BME280;47013;42.664;23.242;2022-09-09T01:10:50;94235.09;;;16.38;87.00
61128;BME280;47013;42.664;23.242;2022-09-09T01:13:27;94241.03;;;16.37;87.57
61128;BME280;47013;42.664;23.242;2022-09-09T01:15:57;94239.38;;;16.39;87.34
61128;BME280;47013;42.664;23.242;2022-09-09T01:18:27;94235.22;;;16.35;87.15
61128;BME280;47013;42.664;23.242;2022-09-09T01:21:13;94235.09;;;16.38;86.15
61128;BME280;47013;42.664;23.242;2022-09-09T01:28:53;94241.16;;;16.59;85.24
61128;BME280;47013;42.664;23.242;2022-09-09T01:31:23;94238.44;;;16.59;84.81
61128;BME280;47013;42.664;23.242;2022-09-09T01:33:51;94251.13;;;16.65;84.31
61128;BME280;47013;42.664;23.242;2022-09-09T01:38:49;94250.78;;;16.50;85.33
61128;BME280;47013;42.664;23.242;2022-09-09T01:41:15;94244.09;;;16.39;86.01
61128;BME280;47013;42.664;23.242;2022-09-09T01:43:40;94246.81;;;16.39;86.29
61128;BME280;47013;42.664;23.242;2022-09-09T01:46:05;94253.31;;;16.45;86.10
61128;BME280;47013;42.664;23.242;2022-09-09T01:48:31;94255.28;;;16.44;85.42
61128;BME280;47013;42.664;23.242;2022-09-09T01:50:57;94259.69;;;16.55;84.92
61128;BME280;47013;42.664;23.242;2022-09-09T01:53:22;94267.22;;;16.50;84.73
61128;BME280;47013;42.664;23.242;2022-09-09T01:56:02;94267.53;;;16.52;84.79
61128;BME280;47013;42.664;23.242;2022-09-09T02:01:17;94254.94;;;16.42;84.85
61128;BME280;47013;42.664;23.242;2022-09-09T02:03:52;94249.22;;;16.37;84.94
61128;BME280;47013;42.664;23.242;2022-09-09T02:06:33;94257.09;;;16.35;85.43
61128;BME280;47013;42.664;23.242;2022-09-09T02:09:03;94251.59;;;16.22;85.81
61128;BME280;47013;42.664;23.242;2022-09-09T02:11:30;94249.75;;;16.19;86.16
61128;BME280;47013;42.664;23.242;2022-09-09T02:14:12;94243.50;;;16.18;86.76
61128;BME280;47013;42.664;23.242;2022-09-09T02:16:50;94252.78;;;16.08;86.86
61128;BME280;47013;42.664;23.242;2022-09-09T02:21:49;94237.25;;;16.18;85.87
61128;BME280;47013;42.664;23.242;2022-09-09T02:24:16;94241.22;;;16.17;86.19
61128;BME280;47013;42.664;23.242;2022-09-09T02:26:42;94232.66;;;16.15;86.38
61128;BME280;47013;42.664;23.242;2022-09-09T02:29:18;94243.72;;;16.24;85.82
61128;BME280;47013;42.664;23.242;2022-09-09T02:31:47;94253.25;;;16.19;85.94
61128;BME280;47013;42.664;23.242;2022-09-09T02:34:14;94255.97;;;16.19;85.78
61128;BME280;47013;42.664;23.242;2022-09-09T02:36:42;94256.09;;;16.16;86.02
61128;BME280;47013;42.664;23.242;2022-09-09T02:39:10;94252.00;;;16.08;86.68
61128;BME280;47013;42.664;23.242;2022-09-09T02:41:39;94265.63;;;15.95;87.63
61128;BME280;47013;42.664;23.242;2022-09-09T02:44:09;94267.50;;;15.98;87.62
61128;BME280;47013;42.664;23.242;2022-09-09T02:52:15;94259.94;;;15.89;88.11
61128;BME280;47013;42.664;23.242;2022-09-09T02:54:43;94262.22;;;15.91;87.88
61128;BME280;47013;42.664;23.242;2022-09-09T02:57:17;94255.41;;;15.83;87.86
61128;BME280;47013;42.664;23.242;2022-09-09T02:59:44;94252.88;;;15.76;88.53
61128;BME280;47013;42.664;23.242;2022-09-09T03:02:10;94253.03;;;15.69;88.76
61128;BME280;47013;42.664;23.242;2022-09-09T03:04:37;94260.16;;;15.66;88.55
61128;BME280;47013;42.664;23.242;2022-09-09T03:07:02;94252.88;;;15.76;87.50
61128;BME280;47013;42.664;23.242;2022-09-09T03:09:29;94253.88;;;15.82;87.28
61128;BME280;47013;42.664;23.242;2022-09-09T03:11:54;94257.59;;;15.88;87.15
61128;BME280;47013;42.664;23.242;2022-09-09T03:14:21;94259.06;;;15.92;86.59
61128;BME280;47013;42.664;23.242;2022-09-09T03:16:50;94251.09;;;15.98;86.42
61128;BME280;47013;42.664;23.242;2022-09-09T03:19:15;94247.47;;;16.01;86.42
61128;BME280;47013;42.664;23.242;2022-09-09T03:21:41;94257.56;;;16.04;86.12
61128;BME280;47013;42.664;23.242;2022-09-09T03:24:06;94254.41;;;16.06;85.94
61128;BME280;47013;42.664;23.242;2022-09-09T03:26:32;94254.31;;;16.09;85.47
61128;BME280;47013;42.664;23.242;2022-09-09T03:28:58;94254.97;;;16.13;85.89
61128;BME280;47013;42.664;23.242;2022-09-09T03:31:25;94250.81;;;16.09;85.96
61128;BME280;47013;42.664;23.242;2022-09-09T03:33:51;94246.97;;;16.06;86.19
61128;BME280;47013;42.664;23.242;2022-09-09T03:36:16;94249.03;;;16.02;86.33
61128;BME280;47013;42.664;23.242;2022-09-09T03:38:42;94248.28;;;16.02;86.58
61128;BME280;47013;42.664;23.242;2022-09-09T03:41:07;94245.09;;;16.03;86.89
61128;BME280;47013;42.664;23.242;2022-09-09T03:43:33;94241.69;;;15.99;87.27
61128;BME280;47013;42.664;23.242;2022-09-09T03:45:58;94249.03;;;16.02;87.17
61128;BME280;47013;42.664;23.242;2022-09-09T03:48:24;94252.28;;;15.97;87.81
61128;BME280;47013;42.664;23.242;2022-09-09T03:50:52;94260.34;;;15.88;88.67
61128;BME280;47013;42.664;23.242;2022-09-09T03:53:20;94261.41;;;15.78;89.60
61128;BME280;47013;42.664;23.242;2022-09-09T03:55:48;94260.72;;;15.74;89.79
61128;BME280;47013;42.664;23.242;2022-09-09T03:58:14;94257.28;;;15.86;89.55
61128;BME280;47013;42.664;23.242;2022-09-09T04:00:40;94250.59;;;15.87;89.77
61128;BME280;47013;42.664;23.242;2022-09-09T04:03:10;94258.38;;;15.88;89.44
61128;BME280;47013;42.664;23.242;2022-09-09T04:05:36;94259.78;;;15.80;89.34
61128;BME280;47013;42.664;23.242;2022-09-09T04:08:05;94267.38;;;15.89;89.24
61128;BME280;47013;42.664;23.242;2022-09-09T04:10:31;94271.97;;;15.92;88.74
61128;BME280;47013;42.664;23.242;2022-09-09T04:12:56;94267.50;;;15.98;88.68
61128;BME280;47013;42.664;23.242;2022-09-09T04:15:22;94274.50;;;15.99;89.04
61128;BME280;47013;42.664;23.242;2022-09-09T04:17:47;94260.38;;;16.01;88.92
61128;BME280;47013;42.664;23.242;2022-09-09T04:20:19;94259.81;;;15.93;89.80
61128;BME280;47013;42.664;23.242;2022-09-09T04:22:44;94253.06;;;15.98;89.34
61128;BME280;47013;42.664;23.242;2022-09-09T04:25:10;94253.63;;;16.05;89.16
61128;BME280;47013;42.664;23.242;2022-09-09T04:27:38;94252.78;;;16.08;88.88
61128;BME280;47013;42.664;23.242;2022-09-09T04:30:07;94264.03;;;16.10;89.27
61128;BME280;47013;42.664;23.242;2022-09-09T04:32:33;94265.13;;;16.13;88.97
61128;BME280;47013;42.664;23.242;2022-09-09T04:34:59;94262.66;;;16.18;88.81
61128;BME280;47013;42.664;23.242;2022-09-09T04:37:25;94269.75;;;16.16;89.57
61128;BME280;47013;42.664;23.242;2022-09-09T04:39:50;94279.50;;;16.17;89.41
61128;BME280;47013;42.664;23.242;2022-09-09T04:42:16;94275.91;;;16.20;89.67
61128;BME280;47013;42.664;23.242;2022-09-09T04:44:43;94278.03;;;16.12;90.47
61128;BME280;47013;42.664;23.242;2022-09-09T04:47:09;94273.44;;;16.09;90.89
61128;BME280;47013;42.664;23.242;2022-09-09T04:49:35;94258.78;;;16.03;91.39
61128;BME280;47013;42.664;23.242;2022-09-09T04:52:02;94256.84;;;16.16;90.84
61128;BME280;47013;42.664;23.242;2022-09-09T04:54:28;94255.75;;;16.27;90.43
61128;BME280;47013;42.664;23.242;2022-09-09T04:56:54;94254.81;;;16.33;89.45
61128;BME280;47013;42.664;23.242;2022-09-09T04:59:20;94252.22;;;16.42;89.50
61128;BME280;47013;42.664;23.242;2022-09-09T05:01:45;94246.19;;;16.47;88.61
61128;BME280;47013;42.664;23.242;2022-09-09T05:04:11;94243.34;;;16.64;87.60
61128;BME280;47013;42.664;23.242;2022-09-09T05:06:36;94231.56;;;16.67;87.90
61128;BME280;47013;42.664;23.242;2022-09-09T05:09:02;94239.78;;;16.79;87.23
61128;BME280;47013;42.664;23.242;2022-09-09T05:11:30;94235.63;;;16.88;87.37
61128;BME280;47013;42.664;23.242;2022-09-09T05:13:57;94252.63;;;16.95;87.58
61128;BME280;47013;42.664;23.242;2022-09-09T05:16:22;94252.81;;;17.01;87.90
61128;BME280;47013;42.664;23.242;2022-09-09T05:18:48;94235.50;;;17.04;84.92
61128;BME280;47013;42.664;23.242;2022-09-09T05:21:16;94235.28;;;17.11;83.91
61128;BME280;47013;42.664;23.242;2022-09-09T05:23:42;94234.28;;;17.18;83.55
61128;BME280;47013;42.664;23.242;2022-09-09T05:26:11;94240.53;;;17.31;83.69
61128;BME280;47013;42.664;23.242;2022-09-09T05:28:37;94244.13;;;17.40;82.96
61128;BME280;47013;42.664;23.242;2022-09-09T05:31:07;94247.28;;;17.52;81.57
61128;BME280;47013;42.664;23.242;2022-09-09T05:33:34;94241.00;;;17.64;79.74
61128;BME280;47013;42.664;23.242;2022-09-09T05:36:08;94242.00;;;17.70;78.64
61128;BME280;47013;42.664;23.242;2022-09-09T05:38:36;94247.88;;;17.81;77.99
61128;BME280;47013;42.664;23.242;2022-09-09T05:41:02;94253.31;;;17.94;76.98
61128;BME280;47013;42.664;23.242;2022-09-09T05:43:28;94250.97;;;18.05;76.06
61128;BME280;47013;42.664;23.242;2022-09-09T05:46:03;94253.22;;;18.19;75.87
61128;BME280;47013;42.664;23.242;2022-09-09T05:48:41;94265.50;;;18.27;74.37
61128;BME280;47013;42.664;23.242;2022-09-09T05:51:09;94261.47;;;18.41;74.31
61128;BME280;47013;42.664;23.242;2022-09-09T05:53:35;94248.22;;;18.49;73.45
61128;BME280;47013;42.664;23.242;2022-09-09T05:56:06;94250.66;;;18.69;73.21
61128;BME280;47013;42.664;23.242;2022-09-09T05:58:33;94249.81;;;18.81;72.79
61128;BME280;47013;42.664;23.242;2022-09-09T06:01:07;94261.94;;;18.93;71.26
61128;BME280;47013;42.664;23.242;2022-09-09T06:03:37;94265.81;;;19.04;71.09
61128;BME280;47013;42.664;23.242;2022-09-09T06:06:05;94270.88;;;19.15;70.86
61128;BME280;47013;42.664;23.242;2022-09-09T06:08:36;94280.06;;;19.21;70.11
61128;BME280;47013;42.664;23.242;2022-09-09T06:11:05;94271.72;;;19.34;69.45
61128;BME280;47013;42.664;23.242;2022-09-09T06:13:31;94272.78;;;19.36;67.92
61128;BME280;47013;42.664;23.242;2022-09-09T06:15:57;94277.09;;;19.47;67.67
61128;BME280;47013;42.664;23.242;2022-09-09T06:18:24;94271.44;;;19.41;67.15
61128;BME280;47013;42.664;23.242;2022-09-09T06:21:03;94265.81;;;19.54;67.09
61128;BME280;47013;42.664;23.242;2022-09-09T06:23:30;94269.97;;;19.58;68.04
61128;BME280;47013;42.664;23.242;2022-09-09T06:26:05;94264.50;;;19.67;67.97
61128;BME280;47013;42.664;23.242;2022-09-09T06:28:32;94274.88;;;19.72;67.26
61128;BME280;47013;42.664;23.242;2022-09-09T06:31:01;94271.53;;;19.78;67.56
61128;BME280;47013;42.664;23.242;2022-09-09T06:33:31;94262.53;;;19.86;67.05
61128;BME280;47013;42.664;23.242;2022-09-09T06:35:57;94261.47;;;19.93;67.03
61128;BME280;47013;42.664;23.242;2022-09-09T06:38:23;94258.09;;;19.98;66.24
61128;BME280;47013;42.664;23.242;2022-09-09T06:40:55;94269.44;;;20.09;65.82
61128;BME280;47013;42.664;23.242;2022-09-09T06:43:22;94263.59;;;20.16;65.62
61128;BME280;47013;42.664;23.242;2022-09-09T06:48:20;94271.25;;;20.30;65.30
61128;BME280;47013;42.664;23.242;2022-09-09T06:50:46;94268.34;;;20.43;64.51
61128;BME280;47013;42.664;23.242;2022-09-09T06:53:11;94278.28;;;20.59;64.99
61128;BME280;47013;42.664;23.242;2022-09-09T06:55:37;94279.19;;;20.74;62.66
61128;BME280;47013;42.664;23.242;2022-09-09T06:58:02;94277.97;;;20.75;62.23
61128;BME280;47013;42.664;23.242;2022-09-09T07:00:32;94285.59;;;20.80;63.10
61128;BME280;47013;42.664;23.242;2022-09-09T07:02:58;94279.13;;;20.92;62.07
61128;BME280;47013;42.664;23.242;2022-09-09T07:05:23;94281.22;;;21.07;61.79
61128;BME280;47013;42.664;23.242;2022-09-09T07:07:48;94283.38;;;21.12;61.82
61128;BME280;47013;42.664;23.242;2022-09-09T07:10:15;94275.69;;;21.25;61.24
61128;BME280;47013;42.664;23.242;2022-09-09T07:12:41;94277.28;;;21.41;60.31
61128;BME280;47013;42.664;23.242;2022-09-09T07:15:06;94269.91;;;21.47;60.77
61128;BME280;47013;42.664;23.242;2022-09-09T07:17:32;94267.56;;;21.55;60.60
61128;BME280;47013;42.664;23.242;2022-09-09T07:19:57;94276.56;;;21.64;60.17
61128;BME280;47013;42.664;23.242;2022-09-09T07:22:22;94264.88;;;21.69;59.94
61128;BME280;47013;42.664;23.242;2022-09-09T07:24:48;94271.59;;;21.77;59.88
61128;BME280;47013;42.664;23.242;2022-09-09T07:27:14;94266.97;;;21.98;59.98
61128;BME280;47013;42.664;23.242;2022-09-09T07:29:40;94262.94;;;22.08;59.04
61128;BME280;47013;42.664;23.242;2022-09-09T07:32:05;94258.59;;;22.17;57.87
61128;BME280;47013;42.664;23.242;2022-09-09T07:34:30;94260.09;;;22.42;58.59
61128;BME280;47013;42.664;23.242;2022-09-09T07:36:56;94250.00;;;22.53;57.57
61128;BME280;47013;42.664;23.242;2022-09-09T07:39:22;94262.66;;;22.60;56.88
61128;BME280;47013;42.664;23.242;2022-09-09T07:41:48;94264.69;;;22.74;57.41
61128;BME280;47013;42.664;23.242;2022-09-09T07:44:19;94261.28;;;22.94;56.64
61128;BME280;47013;42.664;23.242;2022-09-09T07:46:46;94266.41;;;23.16;55.45
61128;BME280;47013;42.664;23.242;2022-09-09T07:49:12;94263.28;;;23.08;54.85
61128;BME280;47013;42.664;23.242;2022-09-09T07:51:43;94262.31;;;23.11;54.55
61128;BME280;47013;42.664;23.242;2022-09-09T07:54:12;94265.06;;;23.11;54.27
61128;BME280;47013;42.664;23.242;2022-09-09T07:56:39;94266.22;;;23.19;55.53
61128;BME280;47013;42.664;23.242;2022-09-09T07:59:04;94268.00;;;23.37;54.65
61128;BME280;47013;42.664;23.242;2022-09-09T08:01:32;94261.56;;;23.61;53.99
61128;BME280;47013;42.664;23.242;2022-09-09T08:04:03;94263.59;;;23.80;52.92
61128;BME280;47013;42.664;23.242;2022-09-09T08:06:31;94263.41;;;23.84;53.12
61128;BME280;47013;42.664;23.242;2022-09-09T08:08:58;94265.53;;;23.95;52.44
61128;BME280;47013;42.664;23.242;2022-09-09T08:11:26;94257.59;;;24.02;52.47
61128;BME280;47013;42.664;23.242;2022-09-09T08:13:52;94265.81;;;24.17;52.01
61128;BME280;47013;42.664;23.242;2022-09-09T08:16:23;94264.44;;;24.27;51.50
61128;BME280;47013;42.664;23.242;2022-09-09T08:18:50;94269.78;;;24.51;50.62
61128;BME280;47013;42.664;23.242;2022-09-09T08:21:22;94268.13;;;24.39;50.35
61128;BME280;47013;42.664;23.242;2022-09-09T08:23:51;94261.38;;;24.46;51.41
61128;BME280;47013;42.664;23.242;2022-09-09T08:26:19;94258.72;;;24.57;51.30
61128;BME280;47013;42.664;23.242;2022-09-09T08:28:54;94262.22;;;24.52;50.11
61128;BME280;47013;42.664;23.242;2022-09-09T08:31:22;94243.78;;;24.49;49.97
61128;BME280;47013;42.664;23.242;2022-09-09T08:33:48;94248.84;;;24.50;50.75
61128;BME280;47013;42.664;23.242;2022-09-09T08:36:19;94255.16;;;24.51;49.96
61128;BME280;47013;42.664;23.242;2022-09-09T08:38:56;94256.00;;;24.36;49.62
61128;BME280;47013;42.664;23.242;2022-09-09T08:58:20;94242.44;;;24.64;49.21
61128;BME280;47013;42.664;23.242;2022-09-09T09:03:54;94249.66;;;24.82;48.69
61128;BME280;47013;42.664;23.242;2022-09-09T09:06:34;94252.78;;;24.95;48.25
61128;BME280;47013;42.664;23.242;2022-09-09T09:09:29;94250.50;;;25.20;46.63
61128;BME280;47013;42.664;23.242;2022-09-09T09:11:59;94243.34;;;25.39;47.15
61128;BME280;47013;42.664;23.242;2022-09-09T09:14:28;94245.41;;;25.50;47.21
61128;BME280;47013;42.664;23.242;2022-09-09T09:17:00;94247.69;;;25.51;46.34
61128;BME280;47013;42.664;23.242;2022-09-09T09:19:27;94235.69;;;25.66;46.15
61128;BME280;47013;42.664;23.242;2022-09-09T09:25:12;94240.53;;;25.71;46.17
61128;BME280;47013;42.664;23.242;2022-09-09T09:30:39;94253.09;;;26.14;45.46
61128;BME280;47013;42.664;23.242;2022-09-09T09:34:08;94238.50;;;26.25;44.84
61128;BME280;47013;42.664;23.242;2022-09-09T09:36:15;94239.28;;;26.31;44.46
61128;BME280;47013;42.664;23.242;2022-09-09T09:38:57;94236.47;;;26.26;44.59
61128;BME280;47013;42.664;23.242;2022-09-09T09:41:35;94226.88;;;26.21;44.94
61128;BME280;47013;42.664;23.242;2022-09-09T09:44:02;94229.66;;;26.21;45.63
61128;BME280;47013;42.664;23.242;2022-09-09T09:46:28;94224.50;;;26.03;45.31
61128;BME280;47013;42.664;23.242;2022-09-09T09:49:11;94227.78;;;26.01;45.49
61128;BME280;47013;42.664;23.242;2022-09-09T09:51:39;94231.00;;;25.83;45.08
61128;BME280;47013;42.664;23.242;2022-09-09T09:56:44;94221.19;;;25.93;45.67
61128;BME280;47013;42.664;23.242;2022-09-09T09:59:21;94217.16;;;26.00;45.38
61128;BME280;47013;42.664;23.242;2022-09-09T10:01:47;94223.25;;;26.04;44.86
61128;BME280;47013;42.664;23.242;2022-09-09T10:04:22;94232.56;;;25.95;45.10
61128;BME280;47013;42.664;23.242;2022-09-09T10:06:51;94224.19;;;25.84;46.06
61128;BME280;47013;42.664;23.242;2022-09-09T10:09:30;94229.19;;;25.74;45.34
61128;BME280;47013;42.664;23.242;2022-09-09T10:12:55;94230.31;;;25.56;45.18
61128;BME280;47013;42.664;23.242;2022-09-09T10:22:51;94236.19;;;25.27;46.80
61128;BME280;47013;42.664;23.242;2022-09-09T10:25:20;94235.91;;;25.25;46.95
61128;BME280;47013;42.664;23.242;2022-09-09T10:28:17;94240.66;;;25.19;47.16
61128;BME280;47013;42.664;23.242;2022-09-09T10:36:32;94241.31;;;25.08;47.31
61128;BME280;47013;42.664;23.242;2022-09-09T10:39:06;94246.94;;;25.14;47.45
61128;BME280;47013;42.664;23.242;2022-09-09T10:44:19;94248.94;;;25.13;47.81
61128;BME280;47013;42.664;23.242;2022-09-09T10:47:12;94248.97;;;25.19;48.84
61128;BME280;47013;42.664;23.242;2022-09-09T10:49:57;94245.22;;;25.22;48.36
61128;BME280;47013;42.664;23.242;2022-09-09T10:55:19;94245.38;;;25.13;49.89
61128;BME280;47013;42.664;23.242;2022-09-09T10:57:50;94243.13;;;25.11;50.16
61128;BME280;47013;42.664;23.242;2022-09-09T11:00:20;94240.81;;;25.04;50.80
61128;BME280;47013;42.664;23.242;2022-09-09T11:03:06;94243.56;;;25.04;50.26
61128;BME280;47013;42.664;23.242;2022-09-09T11:05:41;94253.06;;;24.97;50.57
61128;BME280;47013;42.664;23.242;2022-09-09T11:08:34;94246.00;;;24.96;51.31
61128;BME280;47013;42.664;23.242;2022-09-09T11:16:26;94233.91;;;24.99;51.88
61128;BME280;47013;42.664;23.242;2022-09-09T11:19:17;94233.25;;;25.10;52.05
61128;BME280;47013;42.664;23.242;2022-09-09T11:21:48;94229.94;;;25.01;53.09
61128;BME280;47013;42.664;23.242;2022-09-09T11:26:55;94217.13;;;25.09;53.02
61128;BME280;47013;42.664;23.242;2022-09-09T11:35:23;94183.28;;;25.05;53.28
61128;BME280;47013;42.664;23.242;2022-09-09T11:40:43;94182.38;;;25.19;53.93
61128;BME280;47013;42.664;23.242;2022-09-09T11:43:12;94171.44;;;25.04;53.42
61128;BME280;47013;42.664;23.242;2022-09-09T11:45:40;94153.44;;;24.99;54.25
61128;BME280;47013;42.664;23.242;2022-09-09T11:48:23;94139.75;;;25.16;53.55
61128;BME280;47013;42.664;23.242;2022-09-09T11:50:59;94145.81;;;25.20;53.15
61128;BME280;47013;42.664;23.242;2022-09-09T11:53:25;94143.41;;;25.39;53.13
61128;BME280;47013;42.664;23.242;2022-09-09T11:58:28;94155.53;;;25.96;52.17
61128;BME280;47013;42.664;23.242;2022-09-09T12:00:57;94149.03;;;26.21;51.32
61128;BME280;47013;42.664;23.242;2022-09-09T12:03:46;94150.63;;;26.44;49.83
61128;BME280;47013;42.664;23.242;2022-09-09T12:06:29;94144.56;;;26.46;49.31
61128;BME280;47013;42.664;23.242;2022-09-09T12:09:07;94132.19;;;26.64;48.46
61128;BME280;47013;42.664;23.242;2022-09-09T12:11:34;94132.44;;;26.83;49.22
61128;BME280;47013;42.664;23.242;2022-09-09T12:14:00;94127.63;;;27.11;48.08
61128;BME280;47013;42.664;23.242;2022-09-09T12:19:16;94126.34;;;26.90;46.92
61128;BME280;47013;42.664;23.242;2022-09-09T12:24:40;94116.22;;;26.92;46.32
61128;BME280;47013;42.664;23.242;2022-09-09T12:27:36;94121.06;;;27.03;46.00
61128;BME280;47013;42.664;23.242;2022-09-09T12:30:11;94115.25;;;27.01;44.73
61128;BME280;47013;42.664;23.242;2022-09-09T12:32:37;94116.50;;;26.72;45.53
61128;BME280;47013;42.664;23.242;2022-09-09T12:37:54;94117.88;;;25.89;47.91
61128;BME280;47013;42.664;23.242;2022-09-09T12:40:25;94124.44;;;25.86;48.52
61128;BME280;47013;42.664;23.242;2022-09-09T12:42:51;94129.75;;;25.90;48.09
61128;BME280;47013;42.664;23.242;2022-09-09T12:45:24;94118.84;;;25.75;47.86
61128;BME280;47013;42.664;23.242;2022-09-09T12:47:57;94117.34;;;25.79;48.64
61128;BME280;47013;42.664;23.242;2022-09-09T12:50:28;94116.75;;;25.64;49.38
61128;BME280;47013;42.664;23.242;2022-09-09T12:52:57;94104.13;;;25.57;49.47
61128;BME280;47013;42.664;23.242;2022-09-09T12:55:28;94092.97;;;25.46;50.33
61128;BME280;47013;42.664;23.242;2022-09-09T12:57:56;94106.53;;;25.39;50.64
61128;BME280;47013;42.664;23.242;2022-09-09T13:00:24;94097.00;;;25.45;50.90
61128;BME280;47013;42.664;23.242;2022-09-09T13:02:58;94083.66;;;25.61;51.53
61128;BME280;47013;42.664;23.242;2022-09-09T13:05:35;94091.06;;;25.69;50.51
61128;BME280;47013;42.664;23.242;2022-09-09T13:08:03;94082.44;;;25.67;50.00
61128;BME280;47013;42.664;23.242;2022-09-09T13:10:32;94077.19;;;25.75;50.20
61128;BME280;47013;42.664;23.242;2022-09-09T13:12:59;94082.28;;;25.93;49.76
61128;BME280;47013;42.664;23.242;2022-09-09T13:15:27;94076.75;;;25.99;49.82
61128;BME280;47013;42.664;23.242;2022-09-09T13:17:58;94075.00;;;26.07;50.28
61128;BME280;47013;42.664;23.242;2022-09-09T13:20:26;94075.25;;;26.14;49.40
61128;BME280;47013;42.664;23.242;2022-09-09T13:22:53;94060.09;;;26.10;49.73
61128;BME280;47013;42.664;23.242;2022-09-09T13:25:26;94052.47;;;25.88;49.44
61128;BME280;47013;42.664;23.242;2022-09-09T13:28:02;94061.00;;;25.68;50.41
61128;BME280;47013;42.664;23.242;2022-09-09T13:30:34;94050.38;;;25.66;50.18
61128;BME280;47013;42.664;23.242;2022-09-09T13:35:31;94053.44;;;25.74;50.64
61128;BME280;47013;42.664;23.242;2022-09-09T13:37:59;94058.28;;;25.79;50.99
61128;BME280;47013;42.664;23.242;2022-09-09T13:40:26;94056.25;;;25.85;50.54
61128;BME280;47013;42.664;23.242;2022-09-09T13:42:54;94050.84;;;25.53;49.77
61128;BME280;47013;42.664;23.242;2022-09-09T13:45:25;94041.06;;;25.69;49.66
61128;BME280;47013;42.664;23.242;2022-09-09T13:47:55;94049.44;;;25.86;50.00
61128;BME280;47013;42.664;23.242;2022-09-09T13:50:27;94057.75;;;25.75;48.66
61128;BME280;47013;42.664;23.242;2022-09-09T13:52:55;94040.59;;;25.87;48.47
61128;BME280;47013;42.664;23.242;2022-09-09T13:55:24;94043.41;;;26.04;50.01
61128;BME280;47013;42.664;23.242;2022-09-09T13:57:55;94046.44;;;26.29;47.84
61128;BME280;47013;42.664;23.242;2022-09-09T14:00:21;94038.13;;;26.40;46.66
61128;BME280;47013;42.664;23.242;2022-09-09T14:02:48;94047.50;;;26.48;47.42
61128;BME280;47013;42.664;23.242;2022-09-09T14:05:14;94038.41;;;26.48;47.30
61128;BME280;47013;42.664;23.242;2022-09-09T14:07:41;94039.91;;;26.43;48.59
61128;BME280;47013;42.664;23.242;2022-09-09T14:10:07;94045.47;;;26.32;46.96
61128;BME280;47013;42.664;23.242;2022-09-09T14:12:33;94025.75;;;26.19;46.06
61128;BME280;47013;42.664;23.242;2022-09-09T14:14:58;94031.53;;;26.04;46.26
61128;BME280;47013;42.664;23.242;2022-09-09T14:17:27;94021.91;;;25.88;47.44
61128;BME280;47013;42.664;23.242;2022-09-09T14:19:55;94033.03;;;25.94;48.27
61128;BME280;47013;42.664;23.242;2022-09-09T14:22:21;94035.28;;;25.84;48.25
61128;BME280;47013;42.664;23.242;2022-09-09T14:24:47;94028.19;;;25.77;48.55
61128;BME280;47013;42.664;23.242;2022-09-09T14:27:12;94026.97;;;25.84;48.73
61128;BME280;47013;42.664;23.242;2022-09-09T14:29:38;94031.25;;;25.91;48.24
61128;BME280;47013;42.664;23.242;2022-09-09T14:32:03;94032.53;;;26.01;47.72
61128;BME280;47013;42.664;23.242;2022-09-09T14:34:29;94027.25;;;26.08;46.97
61128;BME280;47013;42.664;23.242;2022-09-09T14:36:54;94028.25;;;26.00;47.00
61128;BME280;47013;42.664;23.242;2022-09-09T14:39:19;94030.28;;;26.10;47.18
61128;BME280;47013;42.664;23.242;2022-09-09T14:41:45;94030.03;;;26.14;46.78
61128;BME280;47013;42.664;23.242;2022-09-09T14:44:11;94033.03;;;26.16;46.55
61128;BME280;47013;42.664;23.242;2022-09-09T14:46:36;94025.97;;;26.15;46.58
61128;BME280;47013;42.664;23.242;2022-09-09T14:49:02;94026.75;;;26.10;47.41
61128;BME280;47013;42.664;23.242;2022-09-09T14:51:27;94018.16;;;26.13;47.26
61128;BME280;47013;42.664;23.242;2022-09-09T14:53:55;94032.53;;;26.12;47.62
61128;BME280;47013;42.664;23.242;2022-09-09T14:56:27;94028.75;;;26.04;47.57
61128;BME280;47013;42.664;23.242;2022-09-09T14:58:55;94035.81;;;25.94;47.68
61128;BME280;47013;42.664;23.242;2022-09-09T15:01:21;94043.41;;;25.93;48.23
61128;BME280;47013;42.664;23.242;2022-09-09T15:03:52;94053.00;;;25.92;48.57
61128;BME280;47013;42.664;23.242;2022-09-09T15:06:19;94051.19;;;25.89;48.00